sensor_id;sensor_type;location;lat;lon;timestamp;temperature;humidity
37844;DHT22;23930;57.632;18.292;2022-08-19T00:01:56;19.50;99.90
37844;DHT22;23930;57.632;18.292;2022-08-19T00:04:28;19.50;99.90
37844;DHT22;23930;57.632;18.292;2022-08-19T00:06:55;19.50;99.90
37844;DHT22;23930;57.632;18.292;2022-08-19T00:09:23;19.40;99.90
37844;DHT22;23930;57.632;18.292;2022-08-19T00:11:51;19.40;99.90
37844;DHT22;23930;57.632;18.292;2022-08-19T00:14:19;19.40;99.90
37844;DHT22;23930;57.632;18.292;2022-08-19T00:16:48;19.30;99.90
37844;DHT22;23930;57.632;18.292;2022-08-19T00:19:15;19.30;99.90
37844;DHT22;23930;57.632;18.292;2022-08-19T00:21:43;19.30;99.90
37844;DHT22;23930;57.632;18.292;2022-08-19T00:24:12;19.30;99.90
37844;DHT22;23930;57.632;18.292;2022-08-19T00:26:40;19.30;99.90
37844;DHT22;23930;57.632;18.292;2022-08-19T00:29:09;19.30;99.90
37844;DHT22;23930;57.632;18.292;2022-08-19T00:31:37;19.20;99.90
37844;DHT22;23930;57.632;18.292;2022-08-19T00:34:04;19.20;99.90
37844;DHT22;23930;57.632;18.292;2022-08-19T00:36:31;19.20;99.90
37844;DHT22;23930;57.632;18.292;2022-08-19T00:38:59;19.20;99.90
37844;DHT22;23930;57.632;18.292;2022-08-19T00:41:27;19.20;99.90
37844;DHT22;23930;57.632;18.292;2022-08-19T00:46:39;19.10;99.90
37844;DHT22;23930;57.632;18.292;2022-08-19T00:49:19;19.10;99.90
37844;DHT22;23930;57.632;18.292;2022-08-19T00:51:50;19.10;99.90
37844;DHT22;23930;57.632;18.292;2022-08-19T00:54:19;19.10;99.90
37844;DHT22;23930;57.632;18.292;2022-08-19T00:56:54;19.10;99.90
37844;DHT22;23930;57.632;18.292;2022-08-19T00:59:22;19.10;99.90
37844;DHT22;23930;57.632;18.292;2022-08-19T01:02:09;19.20;99.90
37844;DHT22;23930;57.632;18.292;2022-08-19T01:04:36;19.20;99.90
37844;DHT22;23930;57.632;18.292;2022-08-19T01:07:03;19.30;99.90
37844;DHT22;23930;57.632;18.292;2022-08-19T01:09:31;19.30;99.90
37844;DHT22;23930;57.632;18.292;2022-08-19T01:11:58;19.30;99.90
37844;DHT22;23930;57.632;18.292;2022-08-19T01:14:25;19.30;99.90
37844;DHT22;23930;57.632;18.292;2022-08-19T01:16:53;19.40;99.90
37844;DHT22;23930;57.632;18.292;2022-08-19T01:22:01;19.40;99.90
37844;DHT22;23930;57.632;18.292;2022-08-19T01:24:40;19.40;99.90
37844;DHT22;23930;57.632;18.292;2022-08-19T01:27:16;19.40;99.90
37844;DHT22;23930;57.632;18.292;2022-08-19T01:29:44;19.40;99.90
37844;DHT22;23930;57.632;18.292;2022-08-19T01:32:14;19.40;99.90
37844;DHT22;23930;57.632;18.292;2022-08-19T01:35:00;19.40;99.90
37844;DHT22;23930;57.632;18.292;2022-08-19T01:37:28;19.40;99.90
37844;DHT22;23930;57.632;18.292;2022-08-19T01:39:57;19.40;99.90
37844;DHT22;23930;57.632;18.292;2022-08-19T01:42:24;19.30;99.90
37844;DHT22;23930;57.632;18.292;2022-08-19T01:44:56;19.30;99.90
37844;DHT22;23930;57.632;18.292;2022-08-19T01:47:23;19.30;99.90
37844;DHT22;23930;57.632;18.292;2022-08-19T01:49:49;19.30;99.90
37844;DHT22;23930;57.632;18.292;2022-08-19T01:52:16;19.30;99.90
37844;DHT22;23930;57.632;18.292;2022-08-19T01:54:43;19.30;99.90
37844;DHT22;23930;57.632;18.292;2022-08-19T01:57:12;19.20;99.90
37844;DHT22;23930;57.632;18.292;2022-08-19T01:59:41;19.20;99.90
37844;DHT22;23930;57.632;18.292;2022-08-19T02:02:09;19.20;99.90
37844;DHT22;23930;57.632;18.292;2022-08-19T02:04:37;19.20;99.90
37844;DHT22;23930;57.632;18.292;2022-08-19T02:07:05;19.10;99.90
37844;DHT22;23930;57.632;18.292;2022-08-19T02:09:33;19.10;99.90
37844;DHT22;23930;57.632;18.292;2022-08-19T02:12:00;19.00;99.90
37844;DHT22;23930;57.632;18.292;2022-08-19T02:14:27;19.00;99.90
37844;DHT22;23930;57.632;18.292;2022-08-19T02:16:54;19.00;99.90
37844;DHT22;23930;57.632;18.292;2022-08-19T02:19:21;19.00;99.90
37844;DHT22;23930;57.632;18.292;2022-08-19T02:21:48;19.00;99.90
37844;DHT22;23930;57.632;18.292;2022-08-19T02:24:16;18.90;99.90
37844;DHT22;23930;57.632;18.292;2022-08-19T02:26:42;18.90;99.90
37844;DHT22;23930;57.632;18.292;2022-08-19T02:29:09;18.90;99.90
37844;DHT22;23930;57.632;18.292;2022-08-19T02:31:36;18.90;99.90
37844;DHT22;23930;57.632;18.292;2022-08-19T02:34:03;18.90;99.90
37844;DHT22;23930;57.632;18.292;2022-08-19T02:36:30;18.90;99.90
37844;DHT22;23930;57.632;18.292;2022-08-19T02:38:57;18.90;99.90
37844;DHT22;23930;57.632;18.292;2022-08-19T02:41:27;18.90;99.90
37844;DHT22;23930;57.632;18.292;2022-08-19T02:43:56;18.90;99.90
37844;DHT22;23930;57.632;18.292;2022-08-19T02:46:46;18.90;99.90
37844;DHT22;23930;57.632;18.292;2022-08-19T02:49:13;18.80;99.90
37844;DHT22;23930;57.632;18.292;2022-08-19T02:51:45;18.80;99.90
37844;DHT22;23930;57.632;18.292;2022-08-19T02:54:13;18.80;99.90
37844;DHT22;23930;57.632;18.292;2022-08-19T02:56:42;18.90;99.90
37844;DHT22;23930;57.632;18.292;2022-08-19T02:59:10;18.90;99.90
37844;DHT22;23930;57.632;18.292;2022-08-19T03:01:39;18.90;99.90
37844;DHT22;23930;57.632;18.292;2022-08-19T03:04:10;19.00;99.90
37844;DHT22;23930;57.632;18.292;2022-08-19T03:06:38;19.00;99.90
37844;DHT22;23930;57.632;18.292;2022-08-19T03:09:05;19.00;99.90
37844;DHT22;23930;57.632;18.292;2022-08-19T03:11:33;19.00;99.90
37844;DHT22;23930;57.632;18.292;2022-08-19T03:14:00;19.00;99.90
37844;DHT22;23930;57.632;18.292;2022-08-19T03:16:30;19.00;99.90
37844;DHT22;23930;57.632;18.292;2022-08-19T03:19:00;19.00;99.90
37844;DHT22;23930;57.632;18.292;2022-08-19T03:21:30;19.10;99.90
37844;DHT22;23930;57.632;18.292;2022-08-19T03:24:00;19.00;99.90
37844;DHT22;23930;57.632;18.292;2022-08-19T03:26:28;19.00;99.90
37844;DHT22;23930;57.632;18.292;2022-08-19T03:28:56;19.00;99.90
37844;DHT22;23930;57.632;18.292;2022-08-19T03:31:26;19.00;99.90
37844;DHT22;23930;57.632;18.292;2022-08-19T03:34:24;19.00;99.90
37844;DHT22;23930;57.632;18.292;2022-08-19T03:36:54;19.00;99.90
37844;DHT22;23930;57.632;18.292;2022-08-19T03:39:23;19.00;99.90
37844;DHT22;23930;57.632;18.292;2022-08-19T03:41:51;19.00;99.90
37844;DHT22;23930;57.632;18.292;2022-08-19T03:44:38;18.90;99.90
37844;DHT22;23930;57.632;18.292;2022-08-19T03:47:06;18.90;99.90
37844;DHT22;23930;57.632;18.292;2022-08-19T03:49:33;18.90;99.90
37844;DHT22;23930;57.632;18.292;2022-08-19T03:52:03;18.90;99.90
37844;DHT22;23930;57.632;18.292;2022-08-19T03:54:34;18.90;99.90
37844;DHT22;23930;57.632;18.292;2022-08-19T03:57:02;18.90;99.90
37844;DHT22;23930;57.632;18.292;2022-08-19T03:59:32;19.00;99.90
37844;DHT22;23930;57.632;18.292;2022-08-19T04:02:01;19.00;99.90
37844;DHT22;23930;57.632;18.292;2022-08-19T04:04:29;19.10;99.90
37844;DHT22;23930;57.632;18.292;2022-08-19T04:06:57;19.10;99.90
37844;DHT22;23930;57.632;18.292;2022-08-19T04:09:24;19.10;99.90
37844;DHT22;23930;57.632;18.292;2022-08-19T04:11:54;19.10;99.90
37844;DHT22;23930;57.632;18.292;2022-08-19T04:14:25;19.10;99.90
37844;DHT22;23930;57.632;18.292;2022-08-19T04:16:52;19.10;99.90
37844;DHT22;23930;57.632;18.292;2022-08-19T04:19:20;19.20;99.90
37844;DHT22;23930;57.632;18.292;2022-08-19T04:21:49;19.20;99.90
37844;DHT22;23930;57.632;18.292;2022-08-19T04:24:18;19.20;99.90
37844;DHT22;23930;57.632;18.292;2022-08-19T04:26:45;19.30;99.90
37844;DHT22;23930;57.632;18.292;2022-08-19T04:29:18;19.30;99.90
37844;DHT22;23930;57.632;18.292;2022-08-19T04:31:49;19.30;99.90
37844;DHT22;23930;57.632;18.292;2022-08-19T04:34:18;19.30;99.90
37844;DHT22;23930;57.632;18.292;2022-08-19T04:36:49;19.30;99.90
37844;DHT22;23930;57.632;18.292;2022-08-19T04:39:20;19.30;99.90
37844;DHT22;23930;57.632;18.292;2022-08-19T04:41:48;19.40;99.90
37844;DHT22;23930;57.632;18.292;2022-08-19T04:44:35;19.40;99.90
37844;DHT22;23930;57.632;18.292;2022-08-19T04:47:10;19.40;99.90
37844;DHT22;23930;57.632;18.292;2022-08-19T04:49:37;19.40;99.90
37844;DHT22;23930;57.632;18.292;2022-08-19T04:52:04;19.50;99.90
37844;DHT22;23930;57.632;18.292;2022-08-19T04:54:31;19.50;99.90
37844;DHT22;23930;57.632;18.292;2022-08-19T04:57:06;19.50;99.90
37844;DHT22;23930;57.632;18.292;2022-08-19T04:59:34;19.50;99.90
37844;DHT22;23930;57.632;18.292;2022-08-19T05:02:02;19.50;99.90
37844;DHT22;23930;57.632;18.292;2022-08-19T05:04:29;19.50;99.90
37844;DHT22;23930;57.632;18.292;2022-08-19T05:07:00;19.50;99.90
37844;DHT22;23930;57.632;18.292;2022-08-19T05:09:29;19.60;99.90
37844;DHT22;23930;57.632;18.292;2022-08-19T05:12:17;19.50;99.90
37844;DHT22;23930;57.632;18.292;2022-08-19T05:14:45;19.60;99.90
37844;DHT22;23930;57.632;18.292;2022-08-19T05:17:14;19.60;99.90
37844;DHT22;23930;57.632;18.292;2022-08-19T05:20:02;19.60;99.90
37844;DHT22;23930;57.632;18.292;2022-08-19T05:22:48;19.70;99.90
37844;DHT22;23930;57.632;18.292;2022-08-19T05:25:18;19.70;99.90
37844;DHT22;23930;57.632;18.292;2022-08-19T05:27:46;19.80;99.90
37844;DHT22;23930;57.632;18.292;2022-08-19T05:30:14;19.80;99.90
37844;DHT22;23930;57.632;18.292;2022-08-19T05:32:41;19.90;99.90
37844;DHT22;23930;57.632;18.292;2022-08-19T05:35:09;20.00;99.90
37844;DHT22;23930;57.632;18.292;2022-08-19T05:37:36;20.00;99.90
37844;DHT22;23930;57.632;18.292;2022-08-19T05:40:03;20.10;99.90
37844;DHT22;23930;57.632;18.292;2022-08-19T05:42:31;20.20;99.90
37844;DHT22;23930;57.632;18.292;2022-08-19T05:44:58;20.30;99.90
37844;DHT22;23930;57.632;18.292;2022-08-19T05:47:25;20.30;99.90
37844;DHT22;23930;57.632;18.292;2022-08-19T05:49:52;20.40;99.90
37844;DHT22;23930;57.632;18.292;2022-08-19T05:52:19;20.40;99.90
37844;DHT22;23930;57.632;18.292;2022-08-19T05:54:52;20.40;99.90
37844;DHT22;23930;57.632;18.292;2022-08-19T05:57:23;20.60;99.90
37844;DHT22;23930;57.632;18.292;2022-08-19T05:59:51;20.60;99.90
37844;DHT22;23930;57.632;18.292;2022-08-19T06:02:29;20.60;99.90
37844;DHT22;23930;57.632;18.292;2022-08-19T06:04:59;20.70;99.90
37844;DHT22;23930;57.632;18.292;2022-08-19T06:07:27;20.80;99.90
37844;DHT22;23930;57.632;18.292;2022-08-19T06:09:55;20.80;99.90
37844;DHT22;23930;57.632;18.292;2022-08-19T06:12:31;20.90;99.90
37844;DHT22;23930;57.632;18.292;2022-08-19T06:15:01;20.90;99.90
37844;DHT22;23930;57.632;18.292;2022-08-19T06:17:30;20.90;99.90
37844;DHT22;23930;57.632;18.292;2022-08-19T06:19:58;21.00;99.90
37844;DHT22;23930;57.632;18.292;2022-08-19T06:22:26;21.00;99.90
37844;DHT22;23930;57.632;18.292;2022-08-19T06:24:53;21.10;99.90
37844;DHT22;23930;57.632;18.292;2022-08-19T06:27:21;21.10;99.90
37844;DHT22;23930;57.632;18.292;2022-08-19T06:29:48;21.20;99.90
37844;DHT22;23930;57.632;18.292;2022-08-19T06:32:16;21.20;99.90
37844;DHT22;23930;57.632;18.292;2022-08-19T06:34:45;21.30;99.90
37844;DHT22;23930;57.632;18.292;2022-08-19T06:37:12;21.30;99.90
37844;DHT22;23930;57.632;18.292;2022-08-19T06:39:44;21.40;99.90
37844;DHT22;23930;57.632;18.292;2022-08-19T06:42:11;21.50;99.90
37844;DHT22;23930;57.632;18.292;2022-08-19T06:44:41;21.50;99.90
37844;DHT22;23930;57.632;18.292;2022-08-19T06:47:16;21.60;99.90
37844;DHT22;23930;57.632;18.292;2022-08-19T06:49:54;21.70;99.90
37844;DHT22;23930;57.632;18.292;2022-08-19T06:52:27;21.70;99.90
37844;DHT22;23930;57.632;18.292;2022-08-19T06:54:54;21.80;99.90
37844;DHT22;23930;57.632;18.292;2022-08-19T06:57:26;21.90;99.90
37844;DHT22;23930;57.632;18.292;2022-08-19T06:59:53;22.00;99.90
37844;DHT22;23930;57.632;18.292;2022-08-19T07:02:20;22.00;99.90
37844;DHT22;23930;57.632;18.292;2022-08-19T07:04:47;22.10;99.90
37844;DHT22;23930;57.632;18.292;2022-08-19T07:07:19;22.20;99.90
37844;DHT22;23930;57.632;18.292;2022-08-19T07:09:49;22.30;99.90
37844;DHT22;23930;57.632;18.292;2022-08-19T07:12:24;22.30;99.90
37844;DHT22;23930;57.632;18.292;2022-08-19T07:14:52;22.40;99.90
37844;DHT22;23930;57.632;18.292;2022-08-19T07:17:20;22.50;99.90
37844;DHT22;23930;57.632;18.292;2022-08-19T07:19:47;22.60;99.90
37844;DHT22;23930;57.632;18.292;2022-08-19T07:22:14;22.60;99.90
37844;DHT22;23930;57.632;18.292;2022-08-19T07:24:43;22.70;99.90
37844;DHT22;23930;57.632;18.292;2022-08-19T07:27:17;22.70;99.90
37844;DHT22;23930;57.632;18.292;2022-08-19T07:29:54;22.80;99.90
37844;DHT22;23930;57.632;18.292;2022-08-19T07:32:25;22.80;99.90
37844;DHT22;23930;57.632;18.292;2022-08-19T07:34:58;23.00;99.90
37844;DHT22;23930;57.632;18.292;2022-08-19T07:37:27;23.00;99.90
37844;DHT22;23930;57.632;18.292;2022-08-19T07:40:00;23.10;99.90
37844;DHT22;23930;57.632;18.292;2022-08-19T07:42:27;23.20;99.90
37844;DHT22;23930;57.632;18.292;2022-08-19T07:44:57;23.20;99.90
37844;DHT22;23930;57.632;18.292;2022-08-19T07:47:25;23.30;99.90
37844;DHT22;23930;57.632;18.292;2022-08-19T07:50:12;23.40;99.90
37844;DHT22;23930;57.632;18.292;2022-08-19T07:52:39;23.50;99.90
37844;DHT22;23930;57.632;18.292;2022-08-19T07:55:09;23.60;99.90
37844;DHT22;23930;57.632;18.292;2022-08-19T07:57:56;23.70;99.90
37844;DHT22;23930;57.632;18.292;2022-08-19T08:00:23;23.80;99.90
37844;DHT22;23930;57.632;18.292;2022-08-19T08:02:52;23.90;99.90
37844;DHT22;23930;57.632;18.292;2022-08-19T08:05:23;24.00;99.90
37844;DHT22;23930;57.632;18.292;2022-08-19T08:08:13;24.10;99.90
37844;DHT22;23930;57.632;18.292;2022-08-19T08:11:00;24.10;99.90
37844;DHT22;23930;57.632;18.292;2022-08-19T08:13:27;24.20;99.90
37844;DHT22;23930;57.632;18.292;2022-08-19T08:15:55;24.20;99.90
37844;DHT22;23930;57.632;18.292;2022-08-19T08:18:23;24.30;99.90
37844;DHT22;23930;57.632;18.292;2022-08-19T08:20:56;24.40;99.90
37844;DHT22;23930;57.632;18.292;2022-08-19T08:23:24;24.40;99.90
37844;DHT22;23930;57.632;18.292;2022-08-19T08:25:55;24.50;99.90
37844;DHT22;23930;57.632;18.292;2022-08-19T08:28:24;24.50;99.90
37844;DHT22;23930;57.632;18.292;2022-08-19T08:30:56;24.50;99.90
37844;DHT22;23930;57.632;18.292;2022-08-19T08:33:26;24.60;99.90
37844;DHT22;23930;57.632;18.292;2022-08-19T08:36:07;24.70;99.90
37844;DHT22;23930;57.632;18.292;2022-08-19T08:38:35;24.90;99.90
37844;DHT22;23930;57.632;18.292;2022-08-19T08:43:56;25.00;99.90
37844;DHT22;23930;57.632;18.292;2022-08-19T08:49:19;25.10;99.90
37844;DHT22;23930;57.632;18.292;2022-08-19T08:52:03;25.30;99.90
37844;DHT22;23930;57.632;18.292;2022-08-19T08:54:43;25.40;99.90
37844;DHT22;23930;57.632;18.292;2022-08-19T08:57:32;25.50;99.90
37844;DHT22;23930;57.632;18.292;2022-08-19T09:00:13;25.80;99.90
37844;DHT22;23930;57.632;18.292;2022-08-19T09:02:42;26.10;99.90
37844;DHT22;23930;57.632;18.292;2022-08-19T09:05:10;26.30;99.90
37844;DHT22;23930;57.632;18.292;2022-08-19T09:07:46;26.40;99.90
37844;DHT22;23930;57.632;18.292;2022-08-19T09:10:32;26.70;99.90
37844;DHT22;23930;57.632;18.292;2022-08-19T09:13:28;26.90;99.90
37844;DHT22;23930;57.632;18.292;2022-08-19T09:16:19;27.10;99.90
37844;DHT22;23930;57.632;18.292;2022-08-19T09:18:56;27.20;99.90
37844;DHT22;23930;57.632;18.292;2022-08-19T09:21:25;27.20;99.90
37844;DHT22;23930;57.632;18.292;2022-08-19T09:24:03;27.20;99.90
37844;DHT22;23930;57.632;18.292;2022-08-19T09:26:31;27.20;99.90
37844;DHT22;23930;57.632;18.292;2022-08-19T09:29:18;27.20;99.90
37844;DHT22;23930;57.632;18.292;2022-08-19T09:31:48;27.30;99.90
37844;DHT22;23930;57.632;18.292;2022-08-19T09:34:16;27.40;99.90
37844;DHT22;23930;57.632;18.292;2022-08-19T09:36:48;27.50;99.90
37844;DHT22;23930;57.632;18.292;2022-08-19T09:39:16;27.70;99.90
37844;DHT22;23930;57.632;18.292;2022-08-19T09:41:43;27.80;99.90
37844;DHT22;23930;57.632;18.292;2022-08-19T09:44:14;27.80;99.90
37844;DHT22;23930;57.632;18.292;2022-08-19T09:46:41;27.90;99.90
37844;DHT22;23930;57.632;18.292;2022-08-19T09:49:08;28.00;99.90
37844;DHT22;23930;57.632;18.292;2022-08-19T09:51:35;28.10;99.90
37844;DHT22;23930;57.632;18.292;2022-08-19T09:54:03;28.10;99.90
37844;DHT22;23930;57.632;18.292;2022-08-19T09:56:31;28.20;99.90
37844;DHT22;23930;57.632;18.292;2022-08-19T09:59:01;28.20;99.90
37844;DHT22;23930;57.632;18.292;2022-08-19T10:01:29;28.30;99.90
37844;DHT22;23930;57.632;18.292;2022-08-19T10:03:58;28.30;99.90
37844;DHT22;23930;57.632;18.292;2022-08-19T10:06:28;28.30;99.90
37844;DHT22;23930;57.632;18.292;2022-08-19T10:09:13;28.40;99.90
37844;DHT22;23930;57.632;18.292;2022-08-19T10:11:41;28.40;99.90
37844;DHT22;23930;57.632;18.292;2022-08-19T10:14:19;28.50;99.90
37844;DHT22;23930;57.632;18.292;2022-08-19T10:16:49;28.60;99.90
37844;DHT22;23930;57.632;18.292;2022-08-19T10:19:17;28.70;99.90
37844;DHT22;23930;57.632;18.292;2022-08-19T10:21:52;28.70;99.90
37844;DHT22;23930;57.632;18.292;2022-08-19T10:24:19;28.80;99.90
37844;DHT22;23930;57.632;18.292;2022-08-19T10:26:47;28.80;99.90
37844;DHT22;23930;57.632;18.292;2022-08-19T10:29:25;28.90;99.90
37844;DHT22;23930;57.632;18.292;2022-08-19T10:32:04;29.00;99.90
37844;DHT22;23930;57.632;18.292;2022-08-19T10:34:39;29.20;99.90
37844;DHT22;23930;57.632;18.292;2022-08-19T10:37:14;29.40;99.90
37844;DHT22;23930;57.632;18.292;2022-08-19T10:39:49;29.60;99.90
37844;DHT22;23930;57.632;18.292;2022-08-19T10:42:17;29.70;99.90
37844;DHT22;23930;57.632;18.292;2022-08-19T10:44:45;29.90;99.90
37844;DHT22;23930;57.632;18.292;2022-08-19T10:47:13;30.00;99.90
37844;DHT22;23930;57.632;18.292;2022-08-19T10:49:50;30.00;99.90
37844;DHT22;23930;57.632;18.292;2022-08-19T10:52:47;30.20;99.90
37844;DHT22;23930;57.632;18.292;2022-08-19T10:55:18;30.20;99.90
37844;DHT22;23930;57.632;18.292;2022-08-19T10:58:13;30.20;99.90
37844;DHT22;23930;57.632;18.292;2022-08-19T11:00:41;30.50;99.90
37844;DHT22;23930;57.632;18.292;2022-08-19T11:03:10;30.60;99.90
37844;DHT22;23930;57.632;18.292;2022-08-19T11:05:37;30.60;99.90
37844;DHT22;23930;57.632;18.292;2022-08-19T11:08:07;30.60;99.90
37844;DHT22;23930;57.632;18.292;2022-08-19T11:10:51;30.70;99.90
37844;DHT22;23930;57.632;18.292;2022-08-19T11:13:20;30.70;99.90
37844;DHT22;23930;57.632;18.292;2022-08-19T11:15:47;30.70;99.90
37844;DHT22;23930;57.632;18.292;2022-08-19T11:18:14;30.60;99.90
37844;DHT22;23930;57.632;18.292;2022-08-19T11:20:41;30.40;99.90
37844;DHT22;23930;57.632;18.292;2022-08-19T11:23:08;30.30;99.90
37844;DHT22;23930;57.632;18.292;2022-08-19T11:25:38;30.20;99.90
37844;DHT22;23930;57.632;18.292;2022-08-19T11:28:05;30.30;99.90
37844;DHT22;23930;57.632;18.292;2022-08-19T11:30:32;30.30;99.90
37844;DHT22;23930;57.632;18.292;2022-08-19T11:33:00;30.30;99.90
37844;DHT22;23930;57.632;18.292;2022-08-19T11:35:27;30.30;99.90
37844;DHT22;23930;57.632;18.292;2022-08-19T11:37:54;30.20;99.90
37844;DHT22;23930;57.632;18.292;2022-08-19T11:40:22;30.10;99.90
37844;DHT22;23930;57.632;18.292;2022-08-19T11:42:49;29.90;99.90
37844;DHT22;23930;57.632;18.292;2022-08-19T11:45:24;29.80;99.90
37844;DHT22;23930;57.632;18.292;2022-08-19T11:47:51;29.70;99.90
37844;DHT22;23930;57.632;18.292;2022-08-19T11:50:19;29.60;99.90
37844;DHT22;23930;57.632;18.292;2022-08-19T11:52:47;29.70;99.90
37844;DHT22;23930;57.632;18.292;2022-08-19T11:55:14;29.70;99.90
37844;DHT22;23930;57.632;18.292;2022-08-19T11:57:41;30.00;99.90
37844;DHT22;23930;57.632;18.292;2022-08-19T12:00:10;30.10;99.90
37844;DHT22;23930;57.632;18.292;2022-08-19T12:02:39;30.30;99.90
37844;DHT22;23930;57.632;18.292;2022-08-19T12:05:07;30.70;99.90
37844;DHT22;23930;57.632;18.292;2022-08-19T12:07:39;30.80;99.90
37844;DHT22;23930;57.632;18.292;2022-08-19T12:10:08;31.00;99.90
37844;DHT22;23930;57.632;18.292;2022-08-19T12:12:37;31.10;99.90
37844;DHT22;23930;57.632;18.292;2022-08-19T12:15:10;31.20;99.90
37844;DHT22;23930;57.632;18.292;2022-08-19T12:17:38;31.30;99.90
37844;DHT22;23930;57.632;18.292;2022-08-19T12:20:05;31.30;99.90
37844;DHT22;23930;57.632;18.292;2022-08-19T12:22:33;31.10;99.90
37844;DHT22;23930;57.632;18.292;2022-08-19T12:25:01;31.10;99.90
37844;DHT22;23930;57.632;18.292;2022-08-19T12:27:29;31.00;99.90
37844;DHT22;23930;57.632;18.292;2022-08-19T12:30:08;30.80;99.90
37844;DHT22;23930;57.632;18.292;2022-08-19T12:32:36;30.60;99.90
37844;DHT22;23930;57.632;18.292;2022-08-19T12:35:04;30.50;99.90
37844;DHT22;23930;57.632;18.292;2022-08-19T12:37:31;30.40;99.90
37844;DHT22;23930;57.632;18.292;2022-08-19T12:39:59;30.40;99.90
37844;DHT22;23930;57.632;18.292;2022-08-19T12:42:26;30.70;99.90
37844;DHT22;23930;57.632;18.292;2022-08-19T12:44:53;31.00;99.90
37844;DHT22;23930;57.632;18.292;2022-08-19T12:47:20;31.30;99.90
37844;DHT22;23930;57.632;18.292;2022-08-19T12:49:48;31.40;99.90
37844;DHT22;23930;57.632;18.292;2022-08-19T12:52:23;31.60;99.90
37844;DHT22;23930;57.632;18.292;2022-08-19T12:54:51;31.60;99.90
37844;DHT22;23930;57.632;18.292;2022-08-19T12:57:24;31.50;99.90
37844;DHT22;23930;57.632;18.292;2022-08-19T13:00:09;31.60;99.90
37844;DHT22;23930;57.632;18.292;2022-08-19T13:02:41;31.70;99.90
37844;DHT22;23930;57.632;18.292;2022-08-19T13:05:15;31.80;99.90
37844;DHT22;23930;57.632;18.292;2022-08-19T13:07:43;31.70;99.90
37844;DHT22;23930;57.632;18.292;2022-08-19T13:10:16;32.00;99.90
37844;DHT22;23930;57.632;18.292;2022-08-19T13:12:45;32.10;99.90
37844;DHT22;23930;57.632;18.292;2022-08-19T13:15:14;32.20;99.90
37844;DHT22;23930;57.632;18.292;2022-08-19T13:17:51;32.20;99.90
37844;DHT22;23930;57.632;18.292;2022-08-19T13:20:20;32.20;99.90
37844;DHT22;23930;57.632;18.292;2022-08-19T13:22:49;32.20;99.90
37844;DHT22;23930;57.632;18.292;2022-08-19T13:25:16;32.10;99.90
37844;DHT22;23930;57.632;18.292;2022-08-19T13:27:46;32.00;99.90
37844;DHT22;23930;57.632;18.292;2022-08-19T13:30:14;32.10;99.90
37844;DHT22;23930;57.632;18.292;2022-08-19T13:33:00;32.20;99.90
37844;DHT22;23930;57.632;18.292;2022-08-19T13:35:49;32.20;99.90
37844;DHT22;23930;57.632;18.292;2022-08-19T13:38:18;32.20;99.90
37844;DHT22;23930;57.632;18.292;2022-08-19T13:40:48;32.20;99.90
37844;DHT22;23930;57.632;18.292;2022-08-19T13:43:17;32.10;99.90
37844;DHT22;23930;57.632;18.292;2022-08-19T13:45:51;32.10;99.90
37844;DHT22;23930;57.632;18.292;2022-08-19T13:48:20;31.90;99.90
37844;DHT22;23930;57.632;18.292;2022-08-19T13:50:47;32.00;99.90
37844;DHT22;23930;57.632;18.292;2022-08-19T13:53:15;32.10;99.90
37844;DHT22;23930;57.632;18.292;2022-08-19T13:55:43;32.00;99.90
37844;DHT22;23930;57.632;18.292;2022-08-19T13:58:12;32.10;99.90
37844;DHT22;23930;57.632;18.292;2022-08-19T14:00:43;32.20;99.90
37844;DHT22;23930;57.632;18.292;2022-08-19T14:03:11;32.20;99.90
37844;DHT22;23930;57.632;18.292;2022-08-19T14:05:38;32.20;99.70
37844;DHT22;23930;57.632;18.292;2022-08-19T14:08:05;32.30;99.80
37844;DHT22;23930;57.632;18.292;2022-08-19T14:10:32;32.10;99.50
37844;DHT22;23930;57.632;18.292;2022-08-19T14:13:02;32.10;99.90
37844;DHT22;23930;57.632;18.292;2022-08-19T14:15:29;32.00;99.10
37844;DHT22;23930;57.632;18.292;2022-08-19T14:17:57;31.80;99.30
37844;DHT22;23930;57.632;18.292;2022-08-19T14:20:24;31.70;99.60
37844;DHT22;23930;57.632;18.292;2022-08-19T14:22:52;31.70;99.90
37844;DHT22;23930;57.632;18.292;2022-08-19T14:25:23;31.50;99.70
37844;DHT22;23930;57.632;18.292;2022-08-19T14:27:51;31.50;99.90
37844;DHT22;23930;57.632;18.292;2022-08-19T14:30:22;31.60;99.90
37844;DHT22;23930;57.632;18.292;2022-08-19T14:32:49;31.50;98.70
37844;DHT22;23930;57.632;18.292;2022-08-19T14:35:16;31.50;98.70
37844;DHT22;23930;57.632;18.292;2022-08-19T14:37:43;31.60;98.90
37844;DHT22;23930;57.632;18.292;2022-08-19T14:40:17;31.80;99.40
37844;DHT22;23930;57.632;18.292;2022-08-19T14:42:47;31.90;99.10
37844;DHT22;23930;57.632;18.292;2022-08-19T14:45:15;32.10;99.00
37844;DHT22;23930;57.632;18.292;2022-08-19T14:47:42;32.30;98.60
37844;DHT22;23930;57.632;18.292;2022-08-19T14:50:11;32.20;98.00
37844;DHT22;23930;57.632;18.292;2022-08-19T14:52:44;32.00;98.00
37844;DHT22;23930;57.632;18.292;2022-08-19T14:55:11;31.90;97.90
37844;DHT22;23930;57.632;18.292;2022-08-19T14:57:40;32.20;99.00
37844;DHT22;23930;57.632;18.292;2022-08-19T15:00:09;32.30;98.60
37844;DHT22;23930;57.632;18.292;2022-08-19T15:02:41;32.50;98.20
37844;DHT22;23930;57.632;18.292;2022-08-19T15:05:08;32.50;98.00
37844;DHT22;23930;57.632;18.292;2022-08-19T15:07:36;32.60;98.00
37844;DHT22;23930;57.632;18.292;2022-08-19T15:10:04;32.50;97.30
37844;DHT22;23930;57.632;18.292;2022-08-19T15:12:38;32.60;97.30
37844;DHT22;23930;57.632;18.292;2022-08-19T15:15:11;32.80;97.30
37844;DHT22;23930;57.632;18.292;2022-08-19T15:17:40;32.60;97.30
37844;DHT22;23930;57.632;18.292;2022-08-19T15:20:16;32.60;97.80
37844;DHT22;23930;57.632;18.292;2022-08-19T15:22:45;32.70;97.60
37844;DHT22;23930;57.632;18.292;2022-08-19T15:25:15;32.70;97.80
37844;DHT22;23930;57.632;18.292;2022-08-19T15:27:42;32.60;97.60
37844;DHT22;23930;57.632;18.292;2022-08-19T15:30:11;32.60;97.70
37844;DHT22;23930;57.632;18.292;2022-08-19T15:32:38;32.50;97.60
37844;DHT22;23930;57.632;18.292;2022-08-19T15:35:06;32.40;97.20
37844;DHT22;23930;57.632;18.292;2022-08-19T15:37:34;32.20;96.70
37844;DHT22;23930;57.632;18.292;2022-08-19T15:40:04;32.00;97.20
37844;DHT22;23930;57.632;18.292;2022-08-19T15:42:32;31.80;97.20
37844;DHT22;23930;57.632;18.292;2022-08-19T15:45:01;31.50;97.20
37844;DHT22;23930;57.632;18.292;2022-08-19T15:47:29;31.20;97.30